METAR Data
IDs: Format: Raw Decoded Include TAF

Data at: 2058 UTC 18 Sep 2018

KHDE 182035Z AUTO 10013G17KT 060V120 10SM CLR 30/18 A2988 RMK AO2 T02960178
KHDE 182015Z AUTO 10013G20KT 10SM CLR 30/17 A2988 RMK AO2 T02980174
KHDE 181955Z AUTO 08013G20KT 10SM CLR 30/17 A2989 RMK AO2 T02980169
KHDE 181935Z AUTO 07013G19KT 10SM CLR 29/17 A2991 RMK AO2 T02920168
KHDE 181915Z AUTO 06011G16KT 10SM CLR 29/17 A2993 RMK AO2 T02890166
KHDE 181855Z AUTO 08012G18KT 10SM CLR 29/16 A2993 RMK AO2 T02870163
KHDE 181835Z AUTO 07014G19KT 10SM CLR 28/16 A2993 RMK AO2 T02820162
KHDE 181815Z AUTO 06015G20KT 10SM CLR 28/17 A2993 RMK AO2 T02790166
KHDE 181755Z AUTO 06012G17KT 10SM VCTS CLR 27/17 A2993 RMK AO2 T02720169 10274 20190
KHDE 181735Z AUTO 05013KT 10SM CLR 27/18 A2995 RMK AO2 T02720175
KHDE 181715Z AUTO 06008KT 10SM CLR 27/18 A2995 RMK AO2 T02660177
KHDE 181655Z AUTO 07009KT 10SM CLR 26/19 A2996 RMK AO2 T02560189
KHDE 181635Z AUTO 04009KT 10SM CLR 25/19 A2997 RMK AO2 T02470189
KHDE 181615Z AUTO 03011G17KT 10SM CLR 24/19 A2997 RMK AO2 T02410188
KHDE 181555Z AUTO 01010KT 10SM CLR 25/19 A2997 RMK AO2 T02500193
KHDE 181535Z AUTO 01009KT 10SM CLR 26/19 A2996 RMK AO2 T02560193
KHDE 181515Z AUTO 02003KT 10SM CLR 25/19 A2996 RMK AO2 T02500190
KHDE 181455Z AUTO 10004KT 10SM CLR 24/19 A2993 RMK AO2 T02430193
KHDE 181435Z AUTO 08005KT 10SM CLR 24/20 A2993 RMK AO2 LTG DSNT NE T02370195
KHDE 181415Z AUTO 05006KT 10SM CLR 23/20 A2993 RMK AO2 T02300196
KHDE 181355Z AUTO 04005KT 10SM CLR 22/20 A2994 RMK AO2 T02220197
KHDE 181335Z AUTO 05004KT 10SM CLR 21/20 A2993 RMK AO2 T02110196
KHDE 181315Z AUTO 06003KT 10SM CLR 20/19 A2994 RMK AO2 T01970190
KHDE 181255Z AUTO 12003KT 10SM CLR 19/18 A2993 RMK AO2 T01920183
KHDE 181235Z AUTO 00000KT 10SM SCT090 20/19 A2993 RMK AO2 T02000186
KHDE 181215Z AUTO 00000KT 10SM SCT090 21/19 A2994 RMK AO2 T02060188
KHDE 181155Z AUTO 18008G16KT 10SM CLR 20/19 A2992 RMK AO2 T02030189 10226 20194
KHDE 181135Z AUTO 19003KT 10SM CLR 20/19 A2991 RMK AO2 T02000186
KHDE 181115Z AUTO 19005KT 10SM CLR 20/19 A2990 RMK AO2 T02000186
KHDE 181055Z AUTO 18004KT 10SM CLR 20/19 A2990 RMK AO2 T02040186
KHDE 181035Z AUTO 17006KT 10SM CLR 20/19 A2990 RMK AO2 T02010185
KHDE 181015Z AUTO 18004KT 10SM CLR 21/19 A2990 RMK AO2 T02080187
KHDE 180955Z AUTO 18004KT 10SM CLR 21/19 A2990 RMK AO2 T02080187
KHDE 180935Z AUTO 00000KT 10SM CLR 21/19 A2990 RMK AO2 T02090187
KHDE 180915Z AUTO 16004KT 10SM CLR 21/19 A2990 RMK AO2 T02110190
KHDE 180855Z AUTO 17007KT 10SM CLR 21/19 A2990 RMK AO2 T02110190
KHDE 180835Z AUTO 17009KT 10SM CLR 21/19 A2990 RMK AO2 T02080190
KHDE 180815Z AUTO 18006KT 10SM CLR 21/19 A2991 RMK AO2 T02080192
KHDE 180755Z AUTO 17006KT 10SM CLR 21/19 A2992 RMK AO2 T02080192
KHDE 180735Z AUTO 17005KT 10SM CLR 21/19 A2993 RMK AO2 T02110192
KHDE 180715Z AUTO 17006KT 10SM CLR 22/19 A2993 RMK AO2 T02150193
KHDE 180655Z AUTO 18006KT 10SM CLR 22/19 A2993 RMK AO2 T02180193
KHDE 180635Z AUTO 17005KT 10SM CLR 22/19 A2994 RMK AO2 T02180192
KHDE 180615Z AUTO 17004KT 10SM CLR 22/19 A2993 RMK AO2 T02220192
KHDE 180555Z AUTO 17007KT 10SM CLR 23/19 A2993 RMK AO2 LTG DSNT NW T02260191 10305 20222 403280180
KHDE 180535Z AUTO 17007KT 10SM CLR 23/19 A2993 RMK AO2 T02290191
KHDE 180515Z AUTO 16007KT 10SM CLR 23/19 A2993 RMK AO2 T02300190
KHDE 180455Z AUTO 16006KT 10SM CLR 23/19 A2993 RMK AO2 T02310190
KHDE 180435Z AUTO 16007KT 10SM CLR 23/19 A2992 RMK AO2 T02290188
KHDE 180415Z AUTO 15007KT 10SM CLR 22/19 A2992 RMK AO2 T02230185
KHDE 180355Z AUTO 15006KT 10SM CLR 23/18 A2992 RMK AO2 T02250181
KHDE 180335Z AUTO 15007KT 10SM CLR 22/18 A2992 RMK AO2 T02220181
KHDE 180315Z AUTO 15005KT 10SM CLR 23/18 A2992 RMK AO2 T02250181
KHDE 180255Z AUTO 15006KT 10SM CLR 24/18 A2991 RMK AO2 T02350180
KHDE 180235Z AUTO 15007KT 10SM CLR 24/18 A2991 RMK AO2 T02400179
KHDE 180215Z AUTO 16007KT 10SM CLR 24/18 A2990 RMK AO2 T02440177
KHDE 180155Z AUTO 15007KT 10SM CLR 24/18 A2989 RMK AO2 T02400175
KHDE 180135Z AUTO 14007KT 10SM CLR 24/18 A2988 RMK AO2 T02410176
KHDE 180115Z AUTO 15006KT 10SM CLR 25/18 A2988 RMK AO2 T02470176
KHDE 180055Z AUTO 15007KT 10SM CLR 26/18 A2988 RMK AO2 T02610177
KHDE 180035Z AUTO 15007KT 10SM CLR 27/18 A2987 RMK AO2 T02720177
KHDE 180015Z AUTO 15007KT 10SM CLR 29/18 A2987 RMK AO2 T02910176
KHDE 172355Z AUTO 16008KT 10SM CLR 31/17 A2987 RMK AO2 T03060172 10328 20298
KHDE 172335Z AUTO 16009G15KT 10SM CLR 32/17 A2987 RMK AO2 T03150167
KHDE 172315Z AUTO 18009KT 10SM CLR 32/17 A2987 RMK AO2 T03210169
KHDE 172255Z AUTO 17008G14KT 10SM CLR 32/17 A2987 RMK AO2 T03220171
KHDE 172235Z AUTO 18010G15KT 10SM CLR 32/17 A2988 RMK AO2 T03220172
KHDE 172215Z AUTO 20012KT 10SM CLR 33/17 A2988 RMK AO2 T03250171
KHDE 172155Z AUTO 19010G16KT 10SM CLR 32/17 A2988 RMK AO2 T03220172
KHDE 172135Z AUTO 19009G19KT 10SM CLR 33/17 A2988 RMK AO2 T03270171
KHDE 172115Z AUTO 17012G19KT 10SM CLR 33/17 A2988 RMK AO2 T03280171
KHDE 172055Z AUTO 18013G19KT 10SM CLR 33/17 A2989 RMK AO2 T03260174
KHDE 172035Z AUTO 20015G20KT 10SM CLR 32/18 A2990 RMK AO2 T03230175
KHDE 172015Z AUTO 18010G15KT 10SM CLR 32/18 A2990 RMK AO2 T03220182
KHDE 171955Z AUTO 21010G19KT 10SM CLR 32/19 A2990 RMK AO2 T03200185
KHDE 171935Z AUTO 19015KT 10SM CLR 32/18 A2991 RMK AO2 T03160184
KHDE 171915Z AUTO 20012G17KT 10SM CLR 32/19 A2991 RMK AO2 T03150188
KHDE 171855Z AUTO 20011G16KT 10SM CLR 31/19 A2993 RMK AO2 T03120187
KHDE 171835Z AUTO 19008G15KT 150V210 10SM CLR 31/20 A2993 RMK AO2 T03070195
KHDE 171815Z AUTO 20009G16KT 10SM CLR 30/19 A2993 RMK AO2 T03040193
KHDE 171755Z AUTO 20008KT 10SM CLR 30/20 A2993 RMK AO2 T02970195 10297 20180
KHDE 171735Z AUTO 17010KT 10SM CLR 29/20 A2994 RMK AO2 T02900196
KHDE 171715Z AUTO 17009KT 10SM CLR 28/20 A2995 RMK AO2 T02820196
KHDE 171655Z AUTO 16008KT 10SM CLR 28/20 A2995 RMK AO2 T02800202
KHDE 171635Z AUTO 16006KT 10SM CLR 27/20 A2996 RMK AO2 T02670202
KHDE 171615Z AUTO 18005KT 10SM CLR 26/20 A2996 RMK AO2 T02610202
KHDE 171555Z AUTO 17005KT 10SM CLR 26/20 A2996 RMK AO2 T02550201
KHDE 171535Z AUTO 20006KT 10SM CLR 25/20 A2996 RMK AO2 T02490203
KHDE 171515Z AUTO 19006KT 10SM CLR 24/20 A2996 RMK AO2 LTG DSNT N T02410204
KHDE 171455Z AUTO 18007KT 10SM CLR 23/21 A2995 RMK AO2 T02330205
KHDE 171435Z AUTO 17007KT 10SM CLR 22/20 A2995 RMK AO2 T02230203
KHDE 171415Z AUTO 18006KT 10SM CLR 22/20 A2995 RMK AO2 T02160202
KHDE 171355Z AUTO 16007KT 10SM CLR 21/20 A2995 RMK AO2 LTG DSNT N T02080200
KHDE 171335Z AUTO 17005KT 7SM CLR 20/20 A2995 RMK AO2 T01990195
KHDE 171315Z AUTO 16005KT 7SM CLR 19/19 A2994 RMK AO2 T01890188
KHDE 171255Z AUTO 17005KT 7SM CLR 19/19 A2995 RMK AO2 T01850185
KHDE 171235Z AUTO 16005KT 7SM CLR 18/18 A2994 RMK AO2 T01800180
KHDE 171215Z AUTO 16005KT 7SM CLR 18/18 A2994 RMK AO2 T01810181
KHDE 171155Z AUTO 16007KT 10SM CLR 18/18 A2993 RMK AO2 T01830182 10211 20181
KHDE 171135Z AUTO 16007KT 10SM CLR 19/18 A2993 RMK AO2 T01850183
KHDE 171115Z AUTO 15006KT 10SM CLR 19/18 A2993 RMK AO2 T01870184
KHDE 171055Z AUTO 16005KT 10SM CLR 19/19 A2993 RMK AO2 T01880185
KHDE 171035Z AUTO 17004KT 10SM CLR 19/18 A2993 RMK AO2 T01860184
KHDE 171015Z AUTO 17003KT 10SM CLR 19/19 A2993 RMK AO2 T01860185
KHDE 170955Z AUTO 16004KT 10SM CLR 18/18 A2993 RMK AO2 T01840183
KHDE 170935Z AUTO 15004KT 10SM CLR 19/19 A2993 RMK AO2 T01900185
KHDE 170915Z AUTO 16005KT 10SM CLR 19/19 A2993 RMK AO2 T01920186